Time;durP1;ratioP1;P1;durP2;ratioP2;P2;SDS_P1;SDS_P2;PMS_P1;PMS_P2;Temp;Humidity;BMP_temperature;BMP_pressure;BME280_temperature;BME280_humidity;BME280_pressure;Samples;Min_cycle;Max_cycle;Signal;HPM_P1;HPM_P2
2022/12/13 00:00:17;;;;;;;47.30;16.88;;;;;;;-6.26;52.68;101305.09;5031074;28;20025;-68
2022/12/13 00:02:43;;;;;;;58.50;18.85;;;;;;;-6.19;52.38;101296.84;5019806;28;20301;-70
2022/12/13 00:05:10;;;;;;;44.88;15.38;;;;;;;-6.23;52.06;101302.66;5012987;28;20065;-69
2022/12/13 00:07:38;;;;;;;38.38;15.90;;;;;;;-6.32;52.23;101299.78;5028476;28;20065;-70
2022/12/13 00:10:05;;;;;;;50.15;16.27;;;;;;;-6.32;52.33;101300.63;5029513;28;20075;-69
2022/12/13 00:12:31;;;;;;;42.35;16.33;;;;;;;-6.33;52.21;101301.47;5034869;28;20103;-70
2022/12/13 00:14:56;;;;;;;51.22;15.75;;;;;;;-6.45;52.60;101298.44;5006307;28;20394;-68
2022/12/13 00:17:22;;;;;;;49.42;16.08;;;;;;;-6.48;52.72;101294.13;5007257;28;20076;-68
2022/12/13 00:19:48;;;;;;;48.38;17.75;;;;;;;-6.47;52.90;101298.38;5009469;28;20185;-70
2022/12/13 00:22:15;;;;;;;52.42;16.45;;;;;;;-6.42;52.97;101296.91;5012705;28;20045;-69
2022/12/13 00:24:41;;;;;;;44.00;17.35;;;;;;;-6.42;52.69;101293.47;5018470;28;20060;-69
2022/12/13 00:27:07;;;;;;;46.15;16.00;;;;;;;-6.49;52.77;101282.19;5020266;28;20049;-70
2022/12/13 00:29:33;;;;;;;44.85;16.13;;;;;;;-6.50;53.07;101285.56;5034339;28;20047;-66
2022/12/13 00:31:58;;;;;;;45.10;14.95;;;;;;;-6.46;52.89;101284.88;5024943;28;20057;-68
2022/12/13 00:34:24;;;;;;;43.25;15.32;;;;;;;-6.33;52.47;101290.38;5029789;28;20041;-67
2022/12/13 00:36:50;;;;;;;45.35;17.48;;;;;;;-6.26;52.32;101287.28;5028037;28;20114;-67
2022/12/13 00:39:17;;;;;;;37.85;13.95;;;;;;;-6.35;52.31;101290.34;5044338;28;20037;-66
2022/12/13 00:41:43;;;;;;;40.42;16.80;;;;;;;-6.49;52.23;101294.06;5026779;28;20041;-66
2022/12/13 00:44:11;;;;;;;40.10;16.40;;;;;;;-6.48;52.27;101299.22;5026971;28;20033;-67
2022/12/13 00:46:37;;;;;;;38.35;16.42;;;;;;;-6.52;52.22;101292.28;5028089;28;20056;-65
2022/12/13 00:49:03;;;;;;;33.33;12.35;;;;;;;-6.55;52.08;101288.72;5028663;28;20122;-67
2022/12/13 00:51:31;;;;;;;41.50;14.23;;;;;;;-6.56;52.22;101295.50;5028501;28;20510;-66
2022/12/13 00:53:57;;;;;;;46.88;14.80;;;;;;;-6.74;52.36;101290.59;5026804;28;20108;-66
2022/12/13 00:56:25;;;;;;;44.80;15.25;;;;;;;-6.77;52.40;101282.00;5034004;28;20057;-65
2022/12/13 00:58:51;;;;;;;46.95;16.88;;;;;;;-6.85;52.54;101277.47;5045224;28;20044;-66
2022/12/13 01:01:19;;;;;;;36.15;15.75;;;;;;;-6.78;52.51;101276.03;5032013;28;20752;-65
2022/12/13 01:03:45;;;;;;;40.70;15.10;;;;;;;-6.68;52.69;101280.66;5029917;28;20622;-68
2022/12/13 01:06:19;;;;;;;43.85;16.02;;;;;;;-6.71;52.56;101269.50;5033605;28;20216;-68
2022/12/13 01:08:45;;;;;;;37.03;15.60;;;;;;;-6.65;52.66;101264.66;5035333;28;20095;-70
2022/12/13 01:11:13;;;;;;;49.63;15.15;;;;;;;-6.73;52.44;101266.03;5029509;28;20032;-68
2022/12/13 01:13:39;;;;;;;41.78;14.70;;;;;;;-6.80;52.52;101262.41;5039911;28;20051;-69
2022/12/13 01:16:07;;;;;;;31.02;13.32;;;;;;;-6.77;52.47;101262.53;5025641;28;20549;-68
2022/12/13 01:18:34;;;;;;;48.58;16.15;;;;;;;-6.74;52.30;101264.31;5008619;28;20726;-67
2022/12/13 01:21:05;;;;;;;37.05;15.00;;;;;;;-6.76;52.18;101261.72;5037721;28;20496;-66
2022/12/13 01:23:30;;;;;;;36.60;13.95;;;;;;;-6.64;52.18;101262.19;5035959;28;20040;-65
2022/12/13 01:25:56;;;;;;;37.97;14.20;;;;;;;-6.66;51.92;101262.94;5031609;28;20430;-66
2022/12/13 01:28:23;;;;;;;40.17;14.57;;;;;;;-6.70;52.07;101268.72;5031407;28;20057;-65
2022/12/13 01:31:04;;;;;;;39.65;13.13;;;;;;;-6.86;51.92;101268.13;5045389;28;20033;-64
2022/12/13 01:33:31;;;;;;;33.10;13.57;;;;;;;-6.80;52.12;101272.56;5033344;28;20687;-66
2022/12/13 01:36:00;;;;;;;35.40;12.80;;;;;;;-6.84;51.84;101276.69;5028171;28;20498;-67
2022/12/13 01:38:26;;;;;;;36.33;13.48;;;;;;;-6.85;51.72;101272.41;5031727;28;20049;-66
2022/12/13 01:40:56;;;;;;;37.25;13.90;;;;;;;-6.86;52.21;101270.69;5030293;28;20510;-66
2022/12/13 01:43:53;;;;;;;36.13;13.75;;;;;;;-6.75;51.75;101272.78;5030101;28;20049;-64
2022/12/13 01:46:19;;;;;;;40.00;14.55;;;;;;;-6.89;51.65;101283.28;5031271;28;20029;-68
2022/12/13 01:48:48;;;;;;;42.70;15.07;;;;;;;-6.92;51.56;101277.19;5030686;28;20041;-66
2022/12/13 01:51:18;;;;;;;42.13;15.75;;;;;;;-7.09;52.11;101276.53;5016149;28;20304;-67
2022/12/13 01:53:46;;;;;;;39.70;13.55;;;;;;;-7.03;52.04;101279.31;5027374;28;20422;-66
2022/12/13 01:56:25;;;;;;;36.70;14.18;;;;;;;-7.04;51.93;101283.53;5037894;28;20443;-66
2022/12/13 01:58:54;;;;;;;40.58;13.23;;;;;;;-7.02;51.70;101268.38;5027430;28;20120;-67
2022/12/13 02:01:21;;;;;;;40.05;14.88;;;;;;;-7.07;52.44;101255.50;5027738;28;20086;-72
2022/12/13 02:03:48;;;;;;;36.83;15.52;;;;;;;-6.93;52.91;101248.38;5032712;28;20049;-73
2022/12/13 02:06:22;;;;;;;42.35;14.27;;;;;;;-6.81;52.66;101247.97;5032625;28;20041;-72
2022/12/13 02:08:48;;;;;;;48.55;14.70;;;;;;;-6.71;52.80;101242.44;5043308;28;20034;-72
2022/12/13 02:11:14;;;;;;;41.60;15.98;;;;;;;-6.61;53.24;101233.47;5040735;28;20167;-73
2022/12/13 02:13:40;;;;;;;47.33;16.70;;;;;;;-6.44;53.14;101250.19;5019296;28;20041;-72
2022/12/13 02:16:24;;;;;;;49.10;18.20;;;;;;;-6.29;53.05;101260.03;5030510;28;20125;-73
2022/12/13 02:19:08;;;;;;;45.10;16.17;;;;;;;-6.16;53.43;101256.25;5026806;28;20128;-71
2022/12/13 02:21:45;;;;;;;52.90;17.05;;;;;;;-5.92;53.79;101251.13;5043404;28;20041;-72
2022/12/13 02:24:31;;;;;;;51.13;19.23;;;;;;;-5.71;53.38;101265.41;5029400;28;20034;-71
2022/12/13 02:27:10;;;;;;;50.55;17.38;;;;;;;-5.50;53.20;101261.00;5027859;28;20048;-72
2022/12/13 02:30:13;;;;;;;42.17;16.35;;;;;;;-5.27;52.40;101258.31;5028872;28;20048;-71
2022/12/13 02:33:05;;;;;;;53.40;18.80;;;;;;;-5.05;52.26;101265.81;5020422;28;20342;-72
2022/12/13 02:35:39;;;;;;;48.05;18.02;;;;;;;-5.03;52.23;101265.88;5016991;28;20042;-70
2022/12/13 02:38:37;;;;;;;57.50;18.55;;;;;;;-5.00;52.54;101264.25;5010678;28;20077;-67
2022/12/13 02:41:16;;;;;;;44.40;17.83;;;;;;;-4.79;52.26;101263.16;5008981;28;20091;-69
2022/12/13 02:44:08;;;;;;;46.25;17.95;;;;;;;-4.73;52.38;101259.13;5021100;28;20049;-67
2022/12/13 02:46:40;;;;;;;52.92;17.48;;;;;;;-4.73;52.02;101248.91;4998530;28;20305;-68
2022/12/13 02:49:10;;;;;;;51.10;18.63;;;;;;;-4.83;52.00;101246.94;5003521;28;20343;-68
2022/12/13 02:51:38;;;;;;;42.83;16.95;;;;;;;-4.89;52.25;101231.44;5016517;28;20029;-66
2022/12/13 02:54:03;;;;;;;54.60;18.25;;;;;;;-4.89;52.25;101246.75;5021415;28;20046;-69
2022/12/13 02:56:31;;;;;;;47.00;17.40;;;;;;;-4.77;52.38;101241.13;5011901;28;20422;-69
2022/12/13 02:58:59;;;;;;;44.65;18.58;;;;;;;-4.83;52.56;101239.28;5027450;28;20043;-66
2022/12/13 03:02:01;;;;;;;53.05;18.85;;;;;;;-4.68;52.95;101233.75;5030040;28;20032;-69
2022/12/13 03:04:35;;;;;;;47.22;17.70;;;;;;;-4.62;52.51;101235.63;5027271;28;20049;-68
2022/12/13 03:07:22;;;;;;;48.20;18.58;;;;;;;-4.62;52.26;101235.63;5018017;28;20525;-67
2022/12/13 03:10:01;;;;;;;48.17;18.88;;;;;;;-4.66;51.98;101228.69;5025963;28;20048;-68
2022/12/13 03:15:38;;;;;;;49.90;19.13;;;;;;;-4.66;52.19;101223.59;5027040;28;20083;-66
2022/12/13 03:18:17;;;;;;;49.75;18.05;;;;;;;-4.71;52.16;101215.81;5026212;28;20072;-68
2022/12/13 03:21:04;;;;;;;43.88;18.40;;;;;;;-4.81;51.98;101216.34;5033511;28;20025;-68
2022/12/13 03:23:30;;;;;;;49.33;18.73;;;;;;;-4.88;52.08;101212.78;5024825;28;20068;-67
2022/12/13 03:26:05;;;;;;;42.25;17.98;;;;;;;-4.97;52.07;101208.28;5025724;28;20118;-67
2022/12/13 03:28:30;;;;;;;49.80;17.75;;;;;;;-5.04;52.07;101211.44;5028136;28;20070;-68
2022/12/13 03:30:56;;;;;;;46.10;18.25;;;;;;;-5.11;52.14;101203.59;5025912;28;20037;-68
2022/12/13 03:33:21;;;;;;;49.70;18.00;;;;;;;-5.29;52.42;101197.13;5042037;28;20053;-67
2022/12/13 03:35:50;;;;;;;44.15;17.10;;;;;;;-5.38;52.44;101199.38;5027592;28;20044;-67
2022/12/13 03:38:17;;;;;;;53.67;18.30;;;;;;;-5.49;52.96;101199.03;5040175;28;20426;-67
2022/12/13 03:40:43;;;;;;;51.55;19.27;;;;;;;-5.51;52.68;101199.81;5028510;28;20028;-68
2022/12/13 03:43:08;;;;;;;44.40;16.05;;;;;;;-5.50;52.76;101194.78;5023231;28;20049;-68
2022/12/13 03:45:33;;;;;;;51.15;18.77;;;;;;;-5.48;52.68;101198.25;5028008;28;20036;-67
2022/12/13 03:47:59;;;;;;;51.63;17.23;;;;;;;-5.50;53.03;101193.94;5028095;28;20041;-69
2022/12/13 03:50:24;;;;;;;56.08;21.90;;;;;;;-5.47;52.73;101199.09;5029694;28;20041;-67
2022/12/13 03:52:50;;;;;;;52.50;17.30;;;;;;;-5.50;52.92;101201.56;5041346;28;20041;-66
2022/12/13 03:55:17;;;;;;;54.90;17.52;;;;;;;-5.52;52.88;101193.88;5042330;28;20043;-66
2022/12/13 03:57:43;;;;;;;45.78;16.40;;;;;;;-5.46;52.79;101191.53;5028356;28;20032;-67
2022/12/13 04:00:09;;;;;;;46.25;15.98;;;;;;;-5.58;52.61;101188.56;5028518;28;20036;-66
2022/12/13 04:02:37;;;;;;;48.80;17.50;;;;;;;-5.74;52.81;101187.22;5027532;28;20037;-71
2022/12/13 04:05:03;;;;;;;40.92;15.85;;;;;;;-5.79;52.99;101188.78;5040159;28;20056;-69
2022/12/13 04:07:29;;;;;;;51.20;16.00;;;;;;;-5.72;52.70;101190.69;5033255;28;20050;-69
2022/12/13 04:09:55;;;;;;;38.42;15.15;;;;;;;-5.87;52.96;101187.66;5031511;28;20125;-69
2022/12/13 04:15:05;;;;;;;36.72;14.70;;;;;;;-5.77;52.75;101180.34;5051302;28;20040;-69
2022/12/13 04:17:30;;;;;;;52.17;17.33;;;;;;;-5.79;52.55;101188.78;5038371;28;20065;-71
2022/12/13 04:19:55;;;;;;;46.28;19.08;;;;;;;-5.99;54.03;101178.78;5013398;28;20056;-71
2022/12/13 04:22:21;;;;;;;47.55;16.20;;;;;;;-5.84;53.27;101180.09;5027915;28;20164;-71
2022/12/13 04:24:46;;;;;;;40.50;14.98;;;;;;;-5.87;52.97;101185.09;5029780;28;20075;-68
2022/12/13 04:27:12;;;;;;;44.50;17.90;;;;;;;-5.85;53.03;101186.00;5027336;28;20597;-68
2022/12/13 04:29:37;;;;;;;54.58;18.40;;;;;;;-5.85;52.89;101180.94;5027384;28;20053;-68
2022/12/13 04:32:03;;;;;;;53.08;18.85;;;;;;;-5.87;52.99;101174.91;5027866;28;20052;-67
2022/12/13 04:34:29;;;;;;;54.10;18.92;;;;;;;-5.95;52.96;101167.03;5026615;28;20414;-68
2022/12/13 04:36:55;;;;;;;51.90;17.15;;;;;;;-6.01;53.17;101171.94;5041637;28;20037;-68
2022/12/13 04:39:20;;;;;;;52.30;16.55;;;;;;;-6.07;53.38;101176.81;5008370;28;20041;-68
2022/12/13 04:41:45;;;;;;;51.17;19.98;;;;;;;-6.09;53.62;101169.13;5004953;28;20116;-68
2022/12/13 04:44:11;;;;;;;47.05;16.80;;;;;;;-6.08;53.67;101158.13;5015702;28;20397;-67
2022/12/13 04:46:37;;;;;;;50.50;16.50;;;;;;;-6.25;53.75;101159.25;5009365;28;20054;-68
2022/12/13 04:49:04;;;;;;;49.20;16.92;;;;;;;-6.24;53.96;101159.31;5007442;28;20657;-68
2022/12/13 04:51:30;;;;;;;41.20;17.23;;;;;;;-6.16;53.51;101154.47;5009422;28;20038;-69
2022/12/13 04:53:55;;;;;;;45.10;16.13;;;;;;;-6.13;53.34;101162.22;5012284;28;20487;-66
2022/12/13 04:56:21;;;;;;;45.75;15.55;;;;;;;-6.25;54.03;101164.34;5023746;28;20213;-68
2022/12/13 04:58:46;;;;;;;37.53;12.95;;;;;;;-6.34;54.21;101169.97;5006728;28;20087;-66
2022/12/13 05:01:12;;;;;;;45.47;15.88;;;;;;;-6.19;53.87;101162.00;5013898;28;20037;-65
2022/12/13 05:03:38;;;;;;;51.13;17.33;;;;;;;-6.23;53.98;101167.78;5005956;28;20045;-67
2022/12/13 05:06:08;;;;;;;42.25;15.52;;;;;;;-6.32;54.07;101168.34;5005974;28;20128;-68
2022/12/13 05:08:35;;;;;;;52.83;16.30;;;;;;;-6.63;54.66;101162.19;5004629;28;20145;-67
2022/12/13 05:11:00;;;;;;;37.72;15.32;;;;;;;-6.35;53.98;101164.81;5005281;28;20034;-66
2022/12/13 05:13:26;;;;;;;40.92;17.02;;;;;;;-6.31;53.69;101169.22;5004406;28;20057;-68
2022/12/13 05:15:59;;;;;;;38.33;15.50;;;;;;;-6.56;54.38;101180.22;5004065;28;20109;-68
2022/12/13 05:18:25;;;;;;;41.35;14.60;;;;;;;-6.86;55.37;101174.09;5005550;28;20046;-66
2022/12/13 05:20:51;;;;;;;38.30;13.75;;;;;;;-6.37;54.33;101169.88;4990844;28;20040;-67
2022/12/13 05:23:18;;;;;;;39.70;14.43;;;;;;;-6.35;53.87;101170.81;5004049;28;20074;-68
2022/12/13 05:25:44;;;;;;;39.40;14.55;;;;;;;-6.36;54.15;101170.75;5038006;28;20056;-68
2022/12/13 05:28:09;;;;;;;44.30;14.90;;;;;;;-6.77;54.43;101176.09;5005460;28;20480;-68
2022/12/13 05:30:41;;;;;;;36.95;14.60;;;;;;;-6.30;53.89;101170.94;5005704;28;20143;-68
2022/12/13 05:33:07;;;;;;;40.88;15.45;;;;;;;-6.43;53.60;101174.75;5025779;28;20040;-66
2022/12/13 05:35:33;;;;;;;57.10;16.38;;;;;;;-6.73;54.24;101171.97;5025294;28;20049;-66
2022/12/13 05:37:59;;;;;;;36.92;15.75;;;;;;;-6.46;54.04;101175.50;5018683;28;20062;-66
2022/12/13 05:40:26;;;;;;;38.20;13.88;;;;;;;-6.26;53.79;101167.72;5006727;28;20030;-67
2022/12/13 05:42:52;;;;;;;39.08;15.15;;;;;;;-6.52;54.12;101175.28;5013573;28;20049;-68
2022/12/13 05:45:19;;;;;;;41.00;16.10;;;;;;;-6.34;54.19;101172.53;5022818;28;20506;-66
2022/12/13 05:47:45;;;;;;;44.08;18.15;;;;;;;-6.29;53.79;101175.22;5023531;28;20075;-70
2022/12/13 05:50:11;;;;;;;39.88;14.82;;;;;;;-6.08;53.69;101172.53;5033024;28;20124;-70
2022/12/13 05:52:37;;;;;;;43.25;15.95;;;;;;;-6.13;53.50;101164.75;5018916;28;20096;-71
2022/12/13 05:55:03;;;;;;;40.90;16.90;;;;;;;-6.10;53.72;101172.50;5008338;28;20050;-71
2022/12/13 05:57:29;;;;;;;52.75;16.67;;;;;;;-6.38;54.31;101168.13;5013614;28;20099;-71
2022/12/13 05:59:55;;;;;;;45.92;16.17;;;;;;;-6.54;54.83;101163.34;5027820;28;20493;-70
2022/12/13 06:02:20;;;;;;;50.72;16.90;;;;;;;-6.34;54.54;101158.94;5040182;28;20041;-70
2022/12/13 06:04:46;;;;;;;50.97;15.43;;;;;;;-6.51;54.85;101153.25;5042088;28;20406;-69
2022/12/13 06:07:12;;;;;;;40.80;14.13;;;;;;;-6.33;54.56;101155.56;5027208;28;20422;-69
2022/12/13 06:09:37;;;;;;;39.97;15.35;;;;;;;-6.26;53.76;101153.31;5019214;28;20500;-70
2022/12/13 06:12:03;;;;;;;40.53;16.70;;;;;;;-6.47;54.71;101157.66;5020212;28;20053;-69
2022/12/13 06:14:29;;;;;;;38.67;15.43;;;;;;;-6.15;53.97;101156.22;5029748;28;20052;-68
2022/12/13 06:16:54;;;;;;;33.65;14.48;;;;;;;-6.13;54.08;101146.94;5028574;28;20048;-69
2022/12/13 06:19:21;;;;;;;39.03;15.23;;;;;;;-6.46;54.34;101156.84;5031003;28;20030;-70
2022/12/13 06:21:47;;;;;;;39.30;14.95;;;;;;;-6.32;54.25;101144.59;5028538;28;20036;-68
2022/12/13 06:24:17;;;;;;;32.83;14.68;;;;;;;-6.27;54.22;101146.47;5028637;28;20033;-70
2022/12/13 06:26:43;;;;;;;40.65;15.73;;;;;;;-6.31;54.38;101141.22;5029097;28;20040;-70
2022/12/13 06:29:09;;;;;;;39.70;13.88;;;;;;;-6.06;53.58;101137.81;5029763;28;20449;-69
2022/12/13 06:31:35;;;;;;;31.08;12.57;;;;;;;-6.51;53.98;101141.44;5035271;28;20435;-70
2022/12/13 06:34:02;;;;;;;37.50;12.45;;;;;;;-6.24;53.39;101141.50;5026808;28;20608;-71
2022/12/13 06:36:27;;;;;;;35.67;13.35;;;;;;;-6.17;53.55;101137.47;5044982;28;20037;-69
2022/12/13 06:38:52;;;;;;;32.05;13.18;;;;;;;-6.20;53.33;101138.25;5025529;28;20110;-66
2022/12/13 06:41:18;;;;;;;28.67;13.10;;;;;;;-6.52;53.89;101133.75;5028074;28;20136;-68
2022/12/13 06:43:46;;;;;;;35.20;13.02;;;;;;;-6.60;54.33;101146.19;5029123;28;20569;-67
2022/12/13 06:46:12;;;;;;;40.33;13.25;;;;;;;-6.31;53.54;101134.44;5027698;28;20056;-66
2022/12/13 06:48:39;;;;;;;44.92;15.13;;;;;;;-6.11;52.96;101126.63;5026327;28;20037;-67
2022/12/13 06:51:05;;;;;;;35.85;16.88;;;;;;;-6.97;54.48;101134.72;5043731;28;20040;-68
2022/12/13 06:53:31;;;;;;;31.95;13.48;;;;;;;-6.38;53.60;101127.44;5026018;28;20132;-66
2022/12/13 06:56:01;;;;;;;34.95;12.68;;;;;;;-6.43;53.68;101134.91;5028212;28;20554;-68
2022/12/13 06:58:26;;;;;;;33.05;12.40;;;;;;;-6.59;54.06;101137.75;5026841;28;20037;-67
2022/12/13 07:01:01;;;;;;;36.28;13.38;;;;;;;-6.43;53.84;101140.00;5044407;28;20084;-67
2022/12/13 07:03:26;;;;;;;31.95;13.88;;;;;;;-6.68;54.63;101134.91;5011019;28;20067;-67
2022/12/13 07:05:52;;;;;;;33.05;14.65;;;;;;;-6.72;54.79;101143.22;5027313;28;20585;-66
2022/12/13 07:08:17;;;;;;;38.35;13.65;;;;;;;-7.58;56.20;101143.47;5027935;28;20053;-68
2022/12/13 07:10:42;;;;;;;34.50;14.05;;;;;;;-7.50;56.33;101133.59;5026112;28;20057;-67
2022/12/13 07:13:09;;;;;;;28.90;12.95;;;;;;;-6.99;55.00;101141.41;5028600;28;20037;-65
2022/12/13 07:15:35;;;;;;;32.60;13.95;;;;;;;-7.25;55.75;101143.84;5029092;28;20040;-67
2022/12/13 07:18:00;;;;;;;47.10;15.70;;;;;;;-6.98;54.85;101147.38;5028783;28;20128;-66
2022/12/13 07:20:26;;;;;;;29.33;13.10;;;;;;;-6.55;54.26;101143.78;5029232;28;20014;-68
2022/12/13 07:22:55;;;;;;;43.05;14.23;;;;;;;-6.64;54.34;101144.38;5026137;28;20090;-67
2022/12/13 07:25:21;;;;;;;43.22;13.93;;;;;;;-6.46;53.90;101150.06;5026642;28;20033;-67
2022/12/13 07:27:47;;;;;;;36.60;13.57;;;;;;;-6.34;53.55;101152.16;5028208;28;20439;-67
2022/12/13 07:30:13;;;;;;;39.95;15.70;;;;;;;-6.56;54.02;101152.25;5029373;28;20053;-67
2022/12/13 07:32:38;;;;;;;37.60;14.60;;;;;;;-6.36;53.47;101145.31;5032994;28;20338;-67
2022/12/13 07:35:04;;;;;;;33.35;13.93;;;;;;;-6.30;53.46;101153.16;5028611;28;20044;-67
2022/12/13 07:37:29;;;;;;;30.95;12.23;;;;;;;-6.57;54.07;101159.00;5027860;28;20125;-66
2022/12/13 07:39:55;;;;;;;40.80;14.70;;;;;;;-6.56;54.61;101157.34;5027358;28;20124;-67
2022/12/13 07:42:20;;;;;;;33.30;14.32;;;;;;;-6.32;53.87;101160.72;5025622;28;20056;-67
2022/12/13 07:44:46;;;;;;;41.92;16.50;;;;;;;-6.18;53.59;101162.03;5026072;28;20520;-67
2022/12/13 07:47:11;;;;;;;38.38;15.02;;;;;;;-6.18;52.74;101167.13;5027506;28;20106;-67
2022/12/13 07:49:39;;;;;;;32.97;13.85;;;;;;;-6.20;53.14;101167.88;5040275;28;20068;-66
2022/12/13 07:52:10;;;;;;;35.35;15.10;;;;;;;-6.18;53.15;101166.25;5025435;28;20051;-67
2022/12/13 07:54:35;;;;;;;32.08;13.65;;;;;;;-6.13;53.35;101168.97;5035587;28;20621;-67
2022/12/13 07:57:01;;;;;;;39.75;17.50;;;;;;;-6.04;53.14;101167.59;5018744;28;20110;-66
2022/12/13 07:59:26;;;;;;;31.52;13.02;;;;;;;-6.18;52.89;101164.56;5028740;28;20033;-66
2022/12/13 08:01:52;;;;;;;34.40;14.70;;;;;;;-6.40;53.27;101159.59;5026107;28;20362;-68
2022/12/13 08:04:20;;;;;;;32.83;13.65;;;;;;;-6.36;53.13;101161.41;5027229;28;20029;-68
2022/12/13 08:06:45;;;;;;;31.48;14.23;;;;;;;-6.28;53.29;101160.00;5026440;28;20702;-65
2022/12/13 08:09:10;;;;;;;40.72;13.70;;;;;;;-6.23;53.07;101167.78;5027408;28;20112;-67
2022/12/13 08:11:36;;;;;;;29.83;13.48;;;;;;;-6.24;52.89;101172.03;5022424;28;20045;-67
2022/12/13 08:14:02;;;;;;;37.13;14.23;;;;;;;-6.09;53.00;101173.34;5023617;28;20206;-67
2022/12/13 08:16:27;;;;;;;36.10;14.93;;;;;;;-6.08;53.09;101178.50;5033301;28;20139;-67
2022/12/13 08:18:53;;;;;;;29.75;13.27;;;;;;;-6.46;53.60;101180.59;5025398;28;20119;-67
2022/12/13 08:21:19;;;;;;;39.88;15.07;;;;;;;-6.59;54.14;101179.28;5025366;28;20108;-67
2022/12/13 08:23:44;;;;;;;37.65;14.77;;;;;;;-7.16;54.68;101167.88;5037612;28;20133;-67
2022/12/13 08:26:10;;;;;;;33.17;14.27;;;;;;;-6.48;54.08;101174.59;5026804;28;20247;-67
2022/12/13 08:28:36;;;;;;;36.53;15.88;;;;;;;-6.68;54.47;101173.88;5039493;28;20060;-67
2022/12/13 08:31:05;;;;;;;31.23;15.10;;;;;;;-6.82;54.85;101181.03;5015657;28;20421;-67
2022/12/13 08:33:32;;;;;;;34.97;14.15;;;;;;;-6.29;54.16;101172.66;5030405;28;20187;-67
2022/12/13 08:36:10;;;;;;;34.72;14.23;;;;;;;-6.21;54.10;101176.34;5040823;28;20132;-66
2022/12/13 08:38:36;;;;;;;32.38;14.57;;;;;;;-6.54;54.78;101182.00;5025167;28;20075;-65
2022/12/13 08:41:02;;;;;;;33.33;13.05;;;;;;;-6.29;54.34;101172.66;5023900;28;20471;-65
2022/12/13 08:43:27;;;;;;;36.33;14.90;;;;;;;-6.34;54.85;101180.16;5026032;28;20079;-66
2022/12/13 08:45:53;;;;;;;42.83;15.23;;;;;;;-5.84;53.82;101185.19;5026294;28;20114;-67
2022/12/13 08:48:18;;;;;;;40.17;16.45;;;;;;;-5.74;53.29;101187.22;5020502;28;20116;-65
2022/12/13 08:50:43;;;;;;;36.95;14.82;;;;;;;-5.43;52.62;101188.19;5032858;28;20140;-68
2022/12/13 08:53:09;;;;;;;39.25;15.05;;;;;;;-6.19;53.25;101190.00;5013043;28;20037;-69
2022/12/13 08:55:35;;;;;;;38.33;14.82;;;;;;;-5.91;53.19;101191.75;5007291;28;20390;-68
2022/12/13 08:58:08;;;;;;;43.25;15.52;;;;;;;-5.79;53.26;101201.50;5005350;28;20108;-73
2022/12/13 09:00:36;;;;;;;36.10;14.60;;;;;;;-5.86;52.54;101194.44;4995525;28;20025;-67
2022/12/13 09:03:03;;;;;;;37.72;14.68;;;;;;;-6.41;54.75;101196.88;5005556;28;20581;-66
2022/12/13 09:05:29;;;;;;;37.88;14.38;;;;;;;-6.03;54.22;101197.31;5006841;28;20034;-66
2022/12/13 09:07:56;;;;;;;31.95;13.30;;;;;;;-5.81;53.73;101192.94;5015677;28;20529;-66
2022/12/13 09:10:21;;;;;;;39.42;15.07;;;;;;;-5.69;53.41;101189.91;5024466;28;20037;-68
2022/12/13 09:12:47;;;;;;;38.33;15.07;;;;;;;-6.26;54.52;101194.00;5018680;28;20038;-67
2022/12/13 09:15:13;;;;;;;38.85;16.13;;;;;;;-5.90;53.92;101203.69;5025972;28;20040;-67
2022/12/13 09:17:39;;;;;;;38.35;15.43;;;;;;;-5.80;53.79;101195.53;5023873;28;20037;-67
2022/12/13 09:20:10;;;;;;;40.00;15.23;;;;;;;-5.43;52.90;101195.84;5025803;28;20050;-66
2022/12/13 09:22:36;;;;;;;38.87;15.00;;;;;;;-5.14;52.12;101200.13;5024586;28;20056;-67
2022/12/13 09:25:03;;;;;;;30.88;13.00;;;;;;;-5.17;51.66;101200.06;5025382;28;20567;-68
2022/12/13 09:27:30;;;;;;;31.17;14.75;;;;;;;-5.11;51.63;101188.28;5026009;28;20038;-69
2022/12/13 09:29:56;;;;;;;38.33;17.08;;;;;;;-5.50;52.39;101193.94;5025485;28;20517;-67
2022/12/13 09:32:22;;;;;;;42.25;15.77;;;;;;;-5.42;53.24;101187.38;5027730;28;20068;-67
2022/12/13 09:34:48;;;;;;;37.25;15.57;;;;;;;-4.55;52.96;101200.09;5009515;28;20037;-67
2022/12/13 09:37:13;;;;;;;36.17;15.20;;;;;;;-4.69;51.61;101193.75;5022787;28;20063;-68
2022/12/13 09:39:38;;;;;;;34.30;14.98;;;;;;;-4.39;50.43;101188.66;5014097;28;20045;-68
2022/12/13 09:42:09;;;;;;;32.58;15.98;;;;;;;-4.96;51.82;101178.56;5021006;28;20614;-67
2022/12/13 09:44:40;;;;;;;33.97;16.10;;;;;;;-4.41;52.23;101172.44;5013013;28;20072;-67
2022/12/13 09:47:14;;;;;;;40.72;16.50;;;;;;;-3.64;50.87;101166.66;5028898;28;20621;-67
2022/12/13 09:49:43;;;;;;;32.80;15.60;;;;;;;-3.97;50.26;101170.13;5020979;28;20029;-68
2022/12/13 09:52:14;;;;;;;44.28;17.25;;;;;;;-3.24;48.22;101162.44;5027746;28;20107;-68
2022/12/13 09:54:40;;;;;;;32.33;14.32;;;;;;;-3.30;48.03;101164.88;5033944;28;20146;-68
2022/12/13 09:57:18;;;;;;;39.80;15.68;;;;;;;-3.27;49.11;101167.50;5039405;28;20053;-68
2022/12/13 09:59:43;;;;;;;37.67;15.30;;;;;;;-3.04;47.68;101162.88;5006913;28;20041;-66
2022/12/13 10:02:30;;;;;;;34.42;14.73;;;;;;;-2.96;46.72;101169.03;5014798;28;20087;-67
2022/12/13 10:05:15;;;;;;;33.38;14.93;;;;;;;-3.28;47.75;101161.50;5027838;28;21253;-67
2022/12/13 10:07:40;;;;;;;29.27;14.63;;;;;;;-3.29;47.34;101158.94;5028167;28;20040;-66
2022/12/13 10:10:12;;;;;;;37.30;15.38;;;;;;;-3.11;48.18;101172.09;5025345;28;20047;-67
2022/12/13 10:12:39;;;;;;;30.95;13.65;;;;;;;-3.40;48.81;101168.06;5027337;28;20556;-67
2022/12/13 10:15:07;;;;;;;34.33;14.55;;;;;;;-3.01;48.20;101164.63;5029146;28;20103;-67
2022/12/13 10:17:36;;;;;;;35.20;14.48;;;;;;;-3.16;48.03;101166.03;5017633;28;20045;-69
2022/12/13 10:20:04;;;;;;;33.50;15.95;;;;;;;-2.80;47.86;101166.75;5030123;28;20052;-66
2022/12/13 10:22:30;;;;;;;30.67;14.38;;;;;;;-3.02;47.76;101163.75;5025997;28;20124;-68
2022/12/13 10:25:04;;;;;;;35.92;15.50;;;;;;;-3.23;47.51;101159.03;5028100;28;21384;-67
2022/12/13 10:27:35;;;;;;;35.40;15.90;;;;;;;-3.67;49.43;101156.38;5026357;28;20531;-68
2022/12/13 10:30:04;;;;;;;45.13;16.23;;;;;;;-3.28;49.57;101160.66;5044147;28;20033;-69
2022/12/13 10:32:33;;;;;;;36.45;15.15;;;;;;;-3.68;50.25;101162.31;5024345;28;20583;-67
2022/12/13 10:34:59;;;;;;;36.50;15.43;;;;;;;-3.60;50.37;101153.13;5029545;28;20043;-67
2022/12/13 10:37:31;;;;;;;38.17;16.55;;;;;;;-4.30;50.96;101152.28;5028441;28;20048;-68
2022/12/13 10:39:57;;;;;;;32.35;16.40;;;;;;;-3.76;50.53;101145.97;5026226;28;20036;-66
2022/12/13 10:42:24;;;;;;;39.25;16.55;;;;;;;-3.82;50.12;101145.81;5033749;28;20587;-68
2022/12/13 10:45:13;;;;;;;36.15;15.05;;;;;;;-3.72;50.93;101145.16;5025505;28;20038;-67
2022/12/13 10:47:42;;;;;;;36.85;16.00;;;;;;;-3.34;50.43;101145.16;5029951;28;20044;-68
2022/12/13 10:50:23;;;;;;;33.08;14.60;;;;;;;-3.43;50.95;101137.31;5027679;28;20226;-68
2022/12/13 10:52:48;;;;;;;34.10;17.92;;;;;;;-3.28;50.24;101135.09;5041614;28;20048;-67
2022/12/13 10:55:34;;;;;;;38.90;17.60;;;;;;;-3.48;51.30;101126.97;5029853;28;20044;-68
2022/12/13 10:58:08;;;;;;;44.45;16.38;;;;;;;-3.70;51.21;101125.63;5027554;28;20053;-68
2022/12/13 11:00:36;;;;;;;33.03;16.80;;;;;;;-3.38;50.53;101122.97;5030016;28;20033;-67
2022/12/13 11:03:03;;;;;;;31.90;16.52;;;;;;;-2.86;50.93;101116.34;5061367;28;20045;-68
2022/12/13 11:05:36;;;;;;;42.72;17.25;;;;;;;-3.21;50.17;101113.94;5041827;28;20387;-67
2022/12/13 11:08:15;;;;;;;34.08;15.40;;;;;;;-2.89;50.08;101106.06;5031430;28;20579;-66
2022/12/13 11:10:41;;;;;;;34.03;15.15;;;;;;;-3.02;50.41;101101.53;5007242;28;20029;-68
2022/12/13 11:13:07;;;;;;;40.17;16.77;;;;;;;-2.84;50.02;101097.63;5008608;28;20042;-68
2022/12/13 11:15:37;;;;;;;40.67;17.80;;;;;;;-3.14;49.95;101097.91;5021931;28;20050;-67
2022/12/13 11:18:17;;;;;;;35.95;17.70;;;;;;;-3.11;50.40;101105.63;4998994;28;20536;-67
2022/12/13 11:20:59;;;;;;;43.20;18.27;;;;;;;-2.64;50.49;101108.22;5005878;28;20342;-69